createdAt,value
2019-05-23T09:42:53.948Z,991.19
2019-05-23T10:07:39.468Z,991.08
2019-05-23T11:02:55.448Z,990.65
2019-05-23T11:23:26.712Z,990.53
2019-05-23T12:10:20.862Z,990.09
2019-05-23T12:25:23.281Z,989.92
2019-05-23T12:40:20.596Z,989.86
2019-05-23T12:55:20.853Z,989.78
2019-05-23T13:10:24.292Z,989.65
2019-05-23T13:25:20.738Z,989.69
2019-05-23T13:40:20.781Z,989.53
2019-05-23T13:55:20.804Z,989.46
2019-05-23T14:10:20.545Z,989.30
2019-05-23T14:25:20.667Z,989.22
2019-05-23T14:40:20.673Z,989.12
2019-05-23T14:55:20.746Z,989.00
2019-05-23T15:10:20.725Z,988.87
2019-05-23T15:25:20.821Z,988.76
2019-05-23T15:40:20.963Z,988.80
2019-05-23T15:55:21.282Z,988.78
2019-05-23T16:10:21.367Z,988.54
2019-05-23T16:25:21.554Z,988.49
2019-05-23T16:40:22.635Z,988.43
2019-05-23T16:55:22.103Z,988.30
2019-05-23T17:10:22.098Z,988.34
2019-05-23T17:25:22.338Z,988.26
2019-05-23T17:40:25.346Z,988.22
2019-05-23T17:55:22.535Z,988.22
2019-05-23T18:10:22.858Z,988.20
2019-05-23T18:25:22.529Z,988.25
2019-05-23T18:40:22.488Z,988.14
2019-05-23T18:55:22.664Z,988.12
2019-05-23T19:10:22.509Z,988.16
2019-05-23T20:21:06.943Z,988.15
2019-05-23T20:44:09.654Z,988.14
2019-05-23T20:59:09.558Z,988.17
2019-05-23T21:14:09.401Z,988.11
2019-05-23T21:29:09.489Z,988.21
2019-05-23T21:44:09.466Z,988.20
2019-05-23T21:59:09.463Z,988.11
2019-05-23T22:14:09.521Z,988.08
2019-05-23T22:29:09.436Z,988.09
2019-05-23T22:44:09.642Z,987.96
2019-05-23T22:59:09.535Z,988.04
2019-05-23T23:14:09.451Z,987.90
2019-05-23T23:29:09.465Z,987.84
2019-05-23T23:44:09.618Z,987.91
2019-05-23T23:59:09.580Z,987.87
